sensor_id;sensor_type;location;lat;lon;timestamp;P1;durP1;ratioP1;P2;durP2;ratioP2
4642;SDS011;2334;48.710;9.622;2023-12-07T00:01:52;17.60;;;9.93;;
4642;SDS011;2334;48.710;9.622;2023-12-07T00:04:19;16.07;;;8.50;;
4642;SDS011;2334;48.710;9.622;2023-12-07T00:06:46;20.23;;;9.13;;
4642;SDS011;2334;48.710;9.622;2023-12-07T00:09:12;11.37;;;8.17;;
4642;SDS011;2334;48.710;9.622;2023-12-07T00:11:41;17.30;;;8.50;;
4642;SDS011;2334;48.710;9.622;2023-12-07T00:14:07;19.73;;;9.73;;
4642;SDS011;2334;48.710;9.622;2023-12-07T00:16:34;12.10;;;7.60;;
4642;SDS011;2334;48.710;9.622;2023-12-07T00:19:01;16.60;;;9.33;;
4642;SDS011;2334;48.710;9.622;2023-12-07T00:21:28;16.43;;;8.50;;
4642;SDS011;2334;48.710;9.622;2023-12-07T00:23:55;21.97;;;10.10;;
4642;SDS011;2334;48.710;9.622;2023-12-07T00:26:21;29.37;;;11.47;;
4642;SDS011;2334;48.710;9.622;2023-12-07T00:28:49;24.83;;;11.80;;
4642;SDS011;2334;48.710;9.622;2023-12-07T00:31:16;19.83;;;10.20;;
4642;SDS011;2334;48.710;9.622;2023-12-07T00:33:45;19.23;;;9.97;;
4642;SDS011;2334;48.710;9.622;2023-12-07T00:36:12;22.43;;;10.63;;
4642;SDS011;2334;48.710;9.622;2023-12-07T00:38:39;21.53;;;10.10;;
4642;SDS011;2334;48.710;9.622;2023-12-07T00:41:06;16.60;;;9.10;;
4642;SDS011;2334;48.710;9.622;2023-12-07T00:43:33;18.07;;;9.53;;
4642;SDS011;2334;48.710;9.622;2023-12-07T00:46:01;14.60;;;9.50;;
4642;SDS011;2334;48.710;9.622;2023-12-07T00:48:28;19.30;;;10.07;;
4642;SDS011;2334;48.710;9.622;2023-12-07T00:50:54;16.80;;;7.37;;
4642;SDS011;2334;48.710;9.622;2023-12-07T00:53:22;17.50;;;9.73;;
4642;SDS011;2334;48.710;9.622;2023-12-07T00:55:48;15.73;;;8.80;;
4642;SDS011;2334;48.710;9.622;2023-12-07T00:58:15;18.10;;;9.40;;
4642;SDS011;2334;48.710;9.622;2023-12-07T01:00:42;17.83;;;9.63;;
4642;SDS011;2334;48.710;9.622;2023-12-07T01:03:10;22.47;;;9.57;;
4642;SDS011;2334;48.710;9.622;2023-12-07T01:05:37;19.90;;;9.97;;
4642;SDS011;2334;48.710;9.622;2023-12-07T01:08:04;17.30;;;9.53;;
4642;SDS011;2334;48.710;9.622;2023-12-07T01:10:31;16.57;;;8.77;;
4642;SDS011;2334;48.710;9.622;2023-12-07T01:12:58;17.87;;;9.13;;
4642;SDS011;2334;48.710;9.622;2023-12-07T01:15:25;19.70;;;9.60;;
4642;SDS011;2334;48.710;9.622;2023-12-07T01:17:52;16.13;;;7.93;;
4642;SDS011;2334;48.710;9.622;2023-12-07T01:20:20;13.53;;;7.43;;
4642;SDS011;2334;48.710;9.622;2023-12-07T01:22:47;16.90;;;9.40;;
4642;SDS011;2334;48.710;9.622;2023-12-07T01:25:14;13.53;;;7.43;;
4642;SDS011;2334;48.710;9.622;2023-12-07T01:27:45;14.87;;;8.30;;
4642;SDS011;2334;48.710;9.622;2023-12-07T01:30:12;12.40;;;8.30;;
4642;SDS011;2334;48.710;9.622;2023-12-07T01:32:38;13.10;;;7.80;;
4642;SDS011;2334;48.710;9.622;2023-12-07T01:35:06;14.70;;;8.27;;
4642;SDS011;2334;48.710;9.622;2023-12-07T01:37:35;14.30;;;8.97;;
4642;SDS011;2334;48.710;9.622;2023-12-07T01:40:02;16.00;;;7.47;;
4642;SDS011;2334;48.710;9.622;2023-12-07T01:42:35;12.73;;;8.23;;
4642;SDS011;2334;48.710;9.622;2023-12-07T01:45:02;13.50;;;8.27;;
4642;SDS011;2334;48.710;9.622;2023-12-07T01:47:29;12.60;;;7.70;;
4642;SDS011;2334;48.710;9.622;2023-12-07T01:49:56;11.67;;;7.83;;
4642;SDS011;2334;48.710;9.622;2023-12-07T01:52:23;14.90;;;7.57;;
4642;SDS011;2334;48.710;9.622;2023-12-07T01:54:54;10.73;;;7.47;;
4642;SDS011;2334;48.710;9.622;2023-12-07T01:57:21;11.93;;;7.60;;
4642;SDS011;2334;48.710;9.622;2023-12-07T01:59:48;12.80;;;7.20;;
4642;SDS011;2334;48.710;9.622;2023-12-07T02:02:16;12.37;;;6.97;;
4642;SDS011;2334;48.710;9.622;2023-12-07T02:04:42;11.93;;;6.63;;
4642;SDS011;2334;48.710;9.622;2023-12-07T02:07:09;15.53;;;7.10;;
4642;SDS011;2334;48.710;9.622;2023-12-07T02:09:37;14.40;;;8.00;;
4642;SDS011;2334;48.710;9.622;2023-12-07T02:12:06;11.83;;;8.30;;
4642;SDS011;2334;48.710;9.622;2023-12-07T02:14:33;12.00;;;7.93;;
4642;SDS011;2334;48.710;9.622;2023-12-07T02:17:01;12.40;;;7.70;;
4642;SDS011;2334;48.710;9.622;2023-12-07T02:19:47;12.23;;;7.57;;
4642;SDS011;2334;48.710;9.622;2023-12-07T02:22:21;13.03;;;8.37;;
4642;SDS011;2334;48.710;9.622;2023-12-07T02:24:55;13.00;;;7.97;;
4642;SDS011;2334;48.710;9.622;2023-12-07T02:27:38;13.57;;;6.23;;
4642;SDS011;2334;48.710;9.622;2023-12-07T02:30:07;13.23;;;7.57;;
4642;SDS011;2334;48.710;9.622;2023-12-07T02:32:35;14.10;;;7.60;;
4642;SDS011;2334;48.710;9.622;2023-12-07T02:35:03;15.30;;;8.60;;
4642;SDS011;2334;48.710;9.622;2023-12-07T02:37:32;15.77;;;7.50;;
4642;SDS011;2334;48.710;9.622;2023-12-07T02:40:02;14.33;;;7.30;;
4642;SDS011;2334;48.710;9.622;2023-12-07T02:42:35;10.50;;;7.30;;
4642;SDS011;2334;48.710;9.622;2023-12-07T02:45:05;9.30;;;6.77;;
4642;SDS011;2334;48.710;9.622;2023-12-07T02:47:33;10.77;;;7.10;;
4642;SDS011;2334;48.710;9.622;2023-12-07T02:50:00;11.13;;;7.90;;
4642;SDS011;2334;48.710;9.622;2023-12-07T02:52:27;12.53;;;7.03;;
4642;SDS011;2334;48.710;9.622;2023-12-07T02:54:54;11.10;;;6.87;;
4642;SDS011;2334;48.710;9.622;2023-12-07T02:57:21;11.40;;;6.97;;
4642;SDS011;2334;48.710;9.622;2023-12-07T02:59:48;12.27;;;7.70;;
4642;SDS011;2334;48.710;9.622;2023-12-07T03:02:16;9.10;;;5.87;;
4642;SDS011;2334;48.710;9.622;2023-12-07T03:04:42;13.77;;;7.93;;
4642;SDS011;2334;48.710;9.622;2023-12-07T03:07:09;12.30;;;7.97;;
4642;SDS011;2334;48.710;9.622;2023-12-07T03:09:36;17.13;;;8.77;;
4642;SDS011;2334;48.710;9.622;2023-12-07T03:12:03;15.90;;;7.67;;
4642;SDS011;2334;48.710;9.622;2023-12-07T03:14:31;8.90;;;6.17;;
4642;SDS011;2334;48.710;9.622;2023-12-07T03:16:57;15.30;;;8.17;;
4642;SDS011;2334;48.710;9.622;2023-12-07T03:19:26;16.83;;;8.20;;
4642;SDS011;2334;48.710;9.622;2023-12-07T03:21:53;14.47;;;7.97;;
4642;SDS011;2334;48.710;9.622;2023-12-07T03:24:19;13.30;;;8.10;;
4642;SDS011;2334;48.710;9.622;2023-12-07T03:26:46;10.90;;;6.93;;
4642;SDS011;2334;48.710;9.622;2023-12-07T03:29:13;16.97;;;7.87;;
4642;SDS011;2334;48.710;9.622;2023-12-07T03:31:40;14.03;;;8.60;;
4642;SDS011;2334;48.710;9.622;2023-12-07T03:34:07;13.93;;;8.50;;
4642;SDS011;2334;48.710;9.622;2023-12-07T03:36:35;12.97;;;7.80;;
4642;SDS011;2334;48.710;9.622;2023-12-07T03:39:02;14.50;;;8.80;;
4642;SDS011;2334;48.710;9.622;2023-12-07T03:41:30;13.77;;;7.97;;
4642;SDS011;2334;48.710;9.622;2023-12-07T03:43:56;13.73;;;7.60;;
4642;SDS011;2334;48.710;9.622;2023-12-07T03:46:23;9.50;;;7.07;;
4642;SDS011;2334;48.710;9.622;2023-12-07T03:48:50;15.83;;;7.63;;
4642;SDS011;2334;48.710;9.622;2023-12-07T03:51:17;12.73;;;7.60;;
4642;SDS011;2334;48.710;9.622;2023-12-07T03:53:45;12.73;;;7.97;;
4642;SDS011;2334;48.710;9.622;2023-12-07T03:56:21;14.83;;;8.37;;
4642;SDS011;2334;48.710;9.622;2023-12-07T03:58:49;12.20;;;7.40;;
4642;SDS011;2334;48.710;9.622;2023-12-07T04:01:16;11.77;;;7.07;;
4642;SDS011;2334;48.710;9.622;2023-12-07T04:03:42;12.57;;;7.80;;
4642;SDS011;2334;48.710;9.622;2023-12-07T04:06:09;14.60;;;7.87;;
4642;SDS011;2334;48.710;9.622;2023-12-07T04:08:36;10.80;;;6.30;;
4642;SDS011;2334;48.710;9.622;2023-12-07T04:11:04;12.07;;;7.87;;
4642;SDS011;2334;48.710;9.622;2023-12-07T04:13:31;15.97;;;7.53;;
4642;SDS011;2334;48.710;9.622;2023-12-07T04:15:58;15.30;;;8.13;;
4642;SDS011;2334;48.710;9.622;2023-12-07T04:18:25;12.50;;;7.90;;
4642;SDS011;2334;48.710;9.622;2023-12-07T04:20:52;14.87;;;8.47;;
4642;SDS011;2334;48.710;9.622;2023-12-07T04:23:19;11.87;;;7.43;;
4642;SDS011;2334;48.710;9.622;2023-12-07T04:25:46;16.80;;;8.93;;
4642;SDS011;2334;48.710;9.622;2023-12-07T04:28:14;16.27;;;8.13;;
4642;SDS011;2334;48.710;9.622;2023-12-07T04:30:41;11.20;;;6.90;;
4642;SDS011;2334;48.710;9.622;2023-12-07T04:33:08;19.53;;;7.87;;
4642;SDS011;2334;48.710;9.622;2023-12-07T04:35:35;16.73;;;8.27;;
4642;SDS011;2334;48.710;9.622;2023-12-07T04:38:02;12.60;;;6.97;;
4642;SDS011;2334;48.710;9.622;2023-12-07T04:40:29;10.33;;;6.40;;
4642;SDS011;2334;48.710;9.622;2023-12-07T04:42:56;14.40;;;9.60;;
4642;SDS011;2334;48.710;9.622;2023-12-07T04:45:25;17.70;;;10.23;;
4642;SDS011;2334;48.710;9.622;2023-12-07T04:47:52;20.10;;;8.10;;
4642;SDS011;2334;48.710;9.622;2023-12-07T04:50:19;15.60;;;8.80;;
4642;SDS011;2334;48.710;9.622;2023-12-07T04:52:46;16.73;;;9.27;;
4642;SDS011;2334;48.710;9.622;2023-12-07T04:55:12;13.70;;;7.70;;
4642;SDS011;2334;48.710;9.622;2023-12-07T04:57:40;11.13;;;6.93;;
4642;SDS011;2334;48.710;9.622;2023-12-07T05:00:07;13.17;;;6.93;;
4642;SDS011;2334;48.710;9.622;2023-12-07T05:02:37;15.20;;;7.40;;
4642;SDS011;2334;48.710;9.622;2023-12-07T05:05:05;8.10;;;5.27;;
4642;SDS011;2334;48.710;9.622;2023-12-07T05:07:32;17.93;;;10.27;;
4642;SDS011;2334;48.710;9.622;2023-12-07T05:09:59;13.30;;;6.60;;
4642;SDS011;2334;48.710;9.622;2023-12-07T05:12:26;12.97;;;7.17;;
4642;SDS011;2334;48.710;9.622;2023-12-07T05:14:52;11.53;;;6.20;;
4642;SDS011;2334;48.710;9.622;2023-12-07T05:17:19;10.53;;;7.43;;
4642;SDS011;2334;48.710;9.622;2023-12-07T05:19:47;11.33;;;7.60;;
4642;SDS011;2334;48.710;9.622;2023-12-07T05:22:14;14.10;;;8.90;;
4642;SDS011;2334;48.710;9.622;2023-12-07T05:24:41;15.57;;;8.53;;
4642;SDS011;2334;48.710;9.622;2023-12-07T05:27:08;13.97;;;7.27;;
4642;SDS011;2334;48.710;9.622;2023-12-07T05:29:35;14.00;;;8.53;;
4642;SDS011;2334;48.710;9.622;2023-12-07T05:32:02;11.47;;;6.50;;
4642;SDS011;2334;48.710;9.622;2023-12-07T05:34:29;12.10;;;7.10;;
4642;SDS011;2334;48.710;9.622;2023-12-07T05:36:57;11.17;;;6.50;;
4642;SDS011;2334;48.710;9.622;2023-12-07T05:39:24;14.30;;;7.37;;
4642;SDS011;2334;48.710;9.622;2023-12-07T05:41:51;10.30;;;6.33;;
4642;SDS011;2334;48.710;9.622;2023-12-07T05:44:18;14.27;;;7.30;;
4642;SDS011;2334;48.710;9.622;2023-12-07T05:46:47;12.47;;;7.57;;
4642;SDS011;2334;48.710;9.622;2023-12-07T05:49:14;9.00;;;6.30;;
4642;SDS011;2334;48.710;9.622;2023-12-07T05:51:41;9.60;;;6.83;;
4642;SDS011;2334;48.710;9.622;2023-12-07T05:54:09;15.80;;;7.00;;
4642;SDS011;2334;48.710;9.622;2023-12-07T05:56:36;11.53;;;6.87;;
4642;SDS011;2334;48.710;9.622;2023-12-07T05:59:03;12.13;;;7.13;;
4642;SDS011;2334;48.710;9.622;2023-12-07T06:01:31;10.17;;;7.10;;
4642;SDS011;2334;48.710;9.622;2023-12-07T06:03:58;11.47;;;7.50;;
4642;SDS011;2334;48.710;9.622;2023-12-07T06:06:25;10.67;;;6.83;;
4642;SDS011;2334;48.710;9.622;2023-12-07T06:08:51;12.53;;;7.40;;
4642;SDS011;2334;48.710;9.622;2023-12-07T06:11:20;17.73;;;8.03;;
4642;SDS011;2334;48.710;9.622;2023-12-07T06:13:47;12.70;;;7.80;;
4642;SDS011;2334;48.710;9.622;2023-12-07T06:16:14;11.03;;;6.90;;
4642;SDS011;2334;48.710;9.622;2023-12-07T06:18:42;14.67;;;9.10;;
4642;SDS011;2334;48.710;9.622;2023-12-07T06:21:09;19.20;;;10.97;;
4642;SDS011;2334;48.710;9.622;2023-12-07T06:23:37;18.67;;;10.23;;
4642;SDS011;2334;48.710;9.622;2023-12-07T06:26:04;20.40;;;7.83;;
4642;SDS011;2334;48.710;9.622;2023-12-07T06:28:33;16.73;;;10.20;;
4642;SDS011;2334;48.710;9.622;2023-12-07T06:31:04;18.17;;;8.40;;
4642;SDS011;2334;48.710;9.622;2023-12-07T06:33:32;16.40;;;10.03;;
4642;SDS011;2334;48.710;9.622;2023-12-07T06:35:59;12.67;;;7.47;;
4642;SDS011;2334;48.710;9.622;2023-12-07T06:38:28;18.37;;;7.97;;
4642;SDS011;2334;48.710;9.622;2023-12-07T06:40:55;16.37;;;8.90;;
4642;SDS011;2334;48.710;9.622;2023-12-07T06:43:22;15.87;;;8.60;;
4642;SDS011;2334;48.710;9.622;2023-12-07T06:45:50;14.37;;;8.20;;
4642;SDS011;2334;48.710;9.622;2023-12-07T06:48:17;14.83;;;9.00;;
4642;SDS011;2334;48.710;9.622;2023-12-07T06:50:44;14.77;;;8.40;;
4642;SDS011;2334;48.710;9.622;2023-12-07T06:53:11;18.43;;;9.83;;
4642;SDS011;2334;48.710;9.622;2023-12-07T06:55:38;16.60;;;8.47;;
4642;SDS011;2334;48.710;9.622;2023-12-07T06:58:06;11.73;;;6.90;;
4642;SDS011;2334;48.710;9.622;2023-12-07T07:00:35;19.07;;;8.70;;
4642;SDS011;2334;48.710;9.622;2023-12-07T07:03:03;13.57;;;8.63;;
4642;SDS011;2334;48.710;9.622;2023-12-07T07:05:31;34.60;;;10.07;;
4642;SDS011;2334;48.710;9.622;2023-12-07T07:07:58;19.97;;;9.87;;
4642;SDS011;2334;48.710;9.622;2023-12-07T07:10:24;15.37;;;8.80;;
4642;SDS011;2334;48.710;9.622;2023-12-07T07:12:51;27.43;;;9.57;;
4642;SDS011;2334;48.710;9.622;2023-12-07T07:15:18;15.93;;;8.70;;
4642;SDS011;2334;48.710;9.622;2023-12-07T07:17:45;14.73;;;8.27;;
4642;SDS011;2334;48.710;9.622;2023-12-07T07:20:14;14.80;;;8.53;;
4642;SDS011;2334;48.710;9.622;2023-12-07T07:22:41;10.93;;;7.80;;
4642;SDS011;2334;48.710;9.622;2023-12-07T07:25:08;22.33;;;10.73;;
4642;SDS011;2334;48.710;9.622;2023-12-07T07:27:35;21.63;;;9.43;;
4642;SDS011;2334;48.710;9.622;2023-12-07T07:30:03;25.17;;;12.50;;
4642;SDS011;2334;48.710;9.622;2023-12-07T07:32:30;28.83;;;13.53;;
4642;SDS011;2334;48.710;9.622;2023-12-07T07:34:57;24.40;;;12.70;;
4642;SDS011;2334;48.710;9.622;2023-12-07T07:37:25;20.13;;;9.40;;
4642;SDS011;2334;48.710;9.622;2023-12-07T07:39:52;40.03;;;13.47;;
4642;SDS011;2334;48.710;9.622;2023-12-07T07:42:19;21.13;;;11.90;;
4642;SDS011;2334;48.710;9.622;2023-12-07T07:44:46;16.13;;;9.40;;
4642;SDS011;2334;48.710;9.622;2023-12-07T07:47:13;18.13;;;9.97;;
4642;SDS011;2334;48.710;9.622;2023-12-07T07:49:40;17.50;;;9.30;;
4642;SDS011;2334;48.710;9.622;2023-12-07T07:52:07;17.00;;;9.93;;
4642;SDS011;2334;48.710;9.622;2023-12-07T07:54:35;18.70;;;11.60;;
4642;SDS011;2334;48.710;9.622;2023-12-07T07:57:02;19.03;;;10.47;;
4642;SDS011;2334;48.710;9.622;2023-12-07T07:59:29;17.30;;;9.00;;
4642;SDS011;2334;48.710;9.622;2023-12-07T08:01:57;32.23;;;10.07;;
4642;SDS011;2334;48.710;9.622;2023-12-07T08:04:23;20.70;;;10.83;;
4642;SDS011;2334;48.710;9.622;2023-12-07T08:06:50;14.43;;;9.30;;
4642;SDS011;2334;48.710;9.622;2023-12-07T08:09:17;14.97;;;10.57;;
4642;SDS011;2334;48.710;9.622;2023-12-07T08:11:45;16.57;;;9.67;;
4642;SDS011;2334;48.710;9.622;2023-12-07T08:14:12;19.77;;;10.60;;
4642;SDS011;2334;48.710;9.622;2023-12-07T08:16:42;16.93;;;9.70;;
4642;SDS011;2334;48.710;9.622;2023-12-07T08:19:11;18.07;;;9.73;;
4642;SDS011;2334;48.710;9.622;2023-12-07T08:21:38;17.93;;;10.13;;
4642;SDS011;2334;48.710;9.622;2023-12-07T08:24:05;19.13;;;11.20;;
4642;SDS011;2334;48.710;9.622;2023-12-07T08:26:33;23.30;;;12.07;;
4642;SDS011;2334;48.710;9.622;2023-12-07T08:29:01;16.47;;;9.70;;
4642;SDS011;2334;48.710;9.622;2023-12-07T08:31:28;17.87;;;10.30;;
4642;SDS011;2334;48.710;9.622;2023-12-07T08:33:55;18.30;;;11.07;;
4642;SDS011;2334;48.710;9.622;2023-12-07T08:36:22;20.23;;;10.57;;
4642;SDS011;2334;48.710;9.622;2023-12-07T08:38:48;25.30;;;11.67;;
4642;SDS011;2334;48.710;9.622;2023-12-07T08:41:15;17.10;;;10.40;;
4642;SDS011;2334;48.710;9.622;2023-12-07T08:43:42;18.43;;;11.13;;
4642;SDS011;2334;48.710;9.622;2023-12-07T08:46:10;20.87;;;10.33;;
4642;SDS011;2334;48.710;9.622;2023-12-07T08:48:37;17.87;;;10.43;;
4642;SDS011;2334;48.710;9.622;2023-12-07T08:51:04;19.33;;;10.13;;
4642;SDS011;2334;48.710;9.622;2023-12-07T08:53:33;21.07;;;10.83;;
4642;SDS011;2334;48.710;9.622;2023-12-07T08:56:00;19.63;;;11.00;;
4642;SDS011;2334;48.710;9.622;2023-12-07T08:58:26;16.40;;;9.70;;
4642;SDS011;2334;48.710;9.622;2023-12-07T09:00:53;19.73;;;9.30;;
4642;SDS011;2334;48.710;9.622;2023-12-07T09:03:21;17.10;;;10.03;;
4642;SDS011;2334;48.710;9.622;2023-12-07T09:05:52;13.40;;;9.27;;
4642;SDS011;2334;48.710;9.622;2023-12-07T09:08:19;17.03;;;9.23;;
4642;SDS011;2334;48.710;9.622;2023-12-07T09:10:46;13.30;;;8.00;;
4642;SDS011;2334;48.710;9.622;2023-12-07T09:13:14;17.20;;;10.10;;
4642;SDS011;2334;48.710;9.622;2023-12-07T09:15:41;16.87;;;10.97;;
4642;SDS011;2334;48.710;9.622;2023-12-07T09:18:08;14.47;;;9.00;;
4642;SDS011;2334;48.710;9.622;2023-12-07T09:20:37;18.60;;;9.67;;
4642;SDS011;2334;48.710;9.622;2023-12-07T09:23:10;13.93;;;7.83;;
4642;SDS011;2334;48.710;9.622;2023-12-07T09:25:38;19.20;;;9.47;;
4642;SDS011;2334;48.710;9.622;2023-12-07T09:28:05;13.20;;;8.30;;
4642;SDS011;2334;48.710;9.622;2023-12-07T09:30:33;16.53;;;9.00;;
4642;SDS011;2334;48.710;9.622;2023-12-07T09:33:00;13.77;;;8.20;;
4642;SDS011;2334;48.710;9.622;2023-12-07T09:35:28;15.30;;;8.00;;
4642;SDS011;2334;48.710;9.622;2023-12-07T09:37:56;13.80;;;9.30;;
4642;SDS011;2334;48.710;9.622;2023-12-07T09:40:23;12.80;;;7.90;;
4642;SDS011;2334;48.710;9.622;2023-12-07T09:42:51;15.67;;;8.63;;
4642;SDS011;2334;48.710;9.622;2023-12-07T09:45:18;14.50;;;7.90;;
4642;SDS011;2334;48.710;9.622;2023-12-07T09:47:46;12.87;;;6.90;;
4642;SDS011;2334;48.710;9.622;2023-12-07T09:50:15;13.87;;;7.93;;
4642;SDS011;2334;48.710;9.622;2023-12-07T09:52:43;11.83;;;7.50;;
4642;SDS011;2334;48.710;9.622;2023-12-07T09:55:11;11.97;;;7.83;;
4642;SDS011;2334;48.710;9.622;2023-12-07T09:57:39;12.67;;;8.07;;
4642;SDS011;2334;48.710;9.622;2023-12-07T10:00:06;16.63;;;8.17;;
4642;SDS011;2334;48.710;9.622;2023-12-07T10:02:36;12.30;;;6.77;;
4642;SDS011;2334;48.710;9.622;2023-12-07T10:05:04;13.07;;;6.20;;
4642;SDS011;2334;48.710;9.622;2023-12-07T10:07:32;5.90;;;5.23;;
4642;SDS011;2334;48.710;9.622;2023-12-07T10:10:02;10.87;;;5.60;;
4642;SDS011;2334;48.710;9.622;2023-12-07T10:12:31;9.00;;;5.70;;
4642;SDS011;2334;48.710;9.622;2023-12-07T10:14:59;14.60;;;6.90;;
4642;SDS011;2334;48.710;9.622;2023-12-07T10:17:42;8.43;;;5.23;;
4642;SDS011;2334;48.710;9.622;2023-12-07T10:20:13;14.43;;;6.60;;
4642;SDS011;2334;48.710;9.622;2023-12-07T10:22:40;8.93;;;6.13;;
4642;SDS011;2334;48.710;9.622;2023-12-07T10:25:07;10.00;;;5.70;;
4642;SDS011;2334;48.710;9.622;2023-12-07T10:27:38;5.70;;;5.10;;
4642;SDS011;2334;48.710;9.622;2023-12-07T10:30:07;12.80;;;5.60;;
4642;SDS011;2334;48.710;9.622;2023-12-07T10:32:36;15.37;;;7.00;;
4642;SDS011;2334;48.710;9.622;2023-12-07T10:35:05;12.10;;;5.63;;
4642;SDS011;2334;48.710;9.622;2023-12-07T10:37:33;6.77;;;4.60;;
4642;SDS011;2334;48.710;9.622;2023-12-07T10:40:00;13.13;;;5.50;;
4642;SDS011;2334;48.710;9.622;2023-12-07T10:42:31;5.70;;;3.83;;
4642;SDS011;2334;48.710;9.622;2023-12-07T10:45:03;11.10;;;4.60;;
4642;SDS011;2334;48.710;9.622;2023-12-07T10:47:32;7.53;;;4.47;;
4642;SDS011;2334;48.710;9.622;2023-12-07T10:50:02;6.30;;;3.50;;
4642;SDS011;2334;48.710;9.622;2023-12-07T10:52:36;5.03;;;4.57;;
4642;SDS011;2334;48.710;9.622;2023-12-07T10:55:10;7.60;;;3.90;;
4642;SDS011;2334;48.710;9.622;2023-12-07T10:57:41;4.17;;;3.20;;
4642;SDS011;2334;48.710;9.622;2023-12-07T11:00:13;2.50;;;2.17;;
4642;SDS011;2334;48.710;9.622;2023-12-07T11:02:40;3.43;;;3.00;;
4642;SDS011;2334;48.710;9.622;2023-12-07T11:05:10;5.40;;;2.37;;
4642;SDS011;2334;48.710;9.622;2023-12-07T11:07:40;3.73;;;3.00;;
4642;SDS011;2334;48.710;9.622;2023-12-07T11:10:18;3.13;;;1.77;;
4642;SDS011;2334;48.710;9.622;2023-12-07T11:12:53;3.93;;;2.37;;
4642;SDS011;2334;48.710;9.622;2023-12-07T11:15:26;3.27;;;2.60;;
4642;SDS011;2334;48.710;9.622;2023-12-07T11:17:54;4.20;;;2.43;;
4642;SDS011;2334;48.710;9.622;2023-12-07T11:20:22;1.87;;;1.77;;
4642;SDS011;2334;48.710;9.622;2023-12-07T11:22:58;3.30;;;1.60;;
4642;SDS011;2334;48.710;9.622;2023-12-07T11:25:25;3.20;;;2.13;;
4642;SDS011;2334;48.710;9.622;2023-12-07T11:27:59;6.80;;;2.70;;
4642;SDS011;2334;48.710;9.622;2023-12-07T11:30:28;4.33;;;2.27;;
4642;SDS011;2334;48.710;9.622;2023-12-07T11:32:57;5.50;;;2.03;;
4642;SDS011;2334;48.710;9.622;2023-12-07T11:35:24;2.43;;;2.23;;
4642;SDS011;2334;48.710;9.622;2023-12-07T11:38:00;2.97;;;1.80;;
4642;SDS011;2334;48.710;9.622;2023-12-07T11:40:34;2.57;;;1.90;;
4642;SDS011;2334;48.710;9.622;2023-12-07T11:43:02;5.33;;;2.33;;
4642;SDS011;2334;48.710;9.622;2023-12-07T11:45:41;2.20;;;1.90;;
4642;SDS011;2334;48.710;9.622;2023-12-07T11:48:14;1.90;;;1.80;;
4642;SDS011;2334;48.710;9.622;2023-12-07T11:50:58;1.47;;;1.37;;
4642;SDS011;2334;48.710;9.622;2023-12-07T11:53:26;1.73;;;1.60;;
4642;SDS011;2334;48.710;9.622;2023-12-07T11:55:55;3.00;;;1.87;;
4642;SDS011;2334;48.710;9.622;2023-12-07T11:58:24;2.33;;;1.40;;
4642;SDS011;2334;48.710;9.622;2023-12-07T12:00:52;1.60;;;1.20;;
4642;SDS011;2334;48.710;9.622;2023-12-07T12:03:21;3.07;;;2.13;;
4642;SDS011;2334;48.710;9.622;2023-12-07T12:05:48;2.10;;;1.60;;
4642;SDS011;2334;48.710;9.622;2023-12-07T12:08:15;2.73;;;1.73;;
4642;SDS011;2334;48.710;9.622;2023-12-07T12:10:43;1.70;;;1.60;;
4642;SDS011;2334;48.710;9.622;2023-12-07T12:13:11;3.40;;;1.50;;
4642;SDS011;2334;48.710;9.622;2023-12-07T12:15:39;1.53;;;1.43;;
4642;SDS011;2334;48.710;9.622;2023-12-07T12:18:08;2.17;;;1.80;;
4642;SDS011;2334;48.710;9.622;2023-12-07T12:20:37;5.03;;;2.63;;
4642;SDS011;2334;48.710;9.622;2023-12-07T12:23:04;4.53;;;1.90;;
4642;SDS011;2334;48.710;9.622;2023-12-07T12:25:31;2.00;;;1.90;;
4642;SDS011;2334;48.710;9.622;2023-12-07T12:28:01;3.13;;;1.80;;
4642;SDS011;2334;48.710;9.622;2023-12-07T12:30:29;2.13;;;1.40;;
4642;SDS011;2334;48.710;9.622;2023-12-07T12:32:57;3.00;;;1.37;;
4642;SDS011;2334;48.710;9.622;2023-12-07T12:35:26;1.40;;;1.30;;
4642;SDS011;2334;48.710;9.622;2023-12-07T12:37:53;1.73;;;1.60;;
4642;SDS011;2334;48.710;9.622;2023-12-07T12:40:21;1.67;;;1.57;;
4642;SDS011;2334;48.710;9.622;2023-12-07T12:42:49;1.50;;;1.40;;
4642;SDS011;2334;48.710;9.622;2023-12-07T12:45:18;1.57;;;1.40;;
4642;SDS011;2334;48.710;9.622;2023-12-07T12:47:46;2.53;;;1.40;;
4642;SDS011;2334;48.710;9.622;2023-12-07T12:53:00;4.33;;;1.60;;
4642;SDS011;2334;48.710;9.622;2023-12-07T12:55:30;1.50;;;1.30;;
4642;SDS011;2334;48.710;9.622;2023-12-07T12:57:57;1.50;;;1.40;;
4642;SDS011;2334;48.710;9.622;2023-12-07T13:00:25;1.53;;;1.43;;
4642;SDS011;2334;48.710;9.622;2023-12-07T13:02:52;4.00;;;1.90;;
4642;SDS011;2334;48.710;9.622;2023-12-07T13:05:19;1.70;;;1.57;;
4642;SDS011;2334;48.710;9.622;2023-12-07T13:07:47;4.60;;;2.53;;
4642;SDS011;2334;48.710;9.622;2023-12-07T13:10:14;1.67;;;1.57;;
4642;SDS011;2334;48.710;9.622;2023-12-07T13:12:41;1.53;;;1.23;;
4642;SDS011;2334;48.710;9.622;2023-12-07T13:15:08;3.40;;;1.20;;
4642;SDS011;2334;48.710;9.622;2023-12-07T13:17:35;2.47;;;1.33;;
4642;SDS011;2334;48.710;9.622;2023-12-07T13:20:11;1.33;;;1.20;;
4642;SDS011;2334;48.710;9.622;2023-12-07T13:22:39;1.50;;;1.40;;
4642;SDS011;2334;48.710;9.622;2023-12-07T13:25:08;1.73;;;1.63;;
4642;SDS011;2334;48.710;9.622;2023-12-07T13:27:37;1.80;;;1.53;;
4642;SDS011;2334;48.710;9.622;2023-12-07T13:30:04;1.77;;;1.63;;
4642;SDS011;2334;48.710;9.622;2023-12-07T13:32:32;1.13;;;1.10;;
4642;SDS011;2334;48.710;9.622;2023-12-07T13:35:02;1.40;;;0.90;;
4642;SDS011;2334;48.710;9.622;2023-12-07T13:37:31;2.70;;;1.30;;
4642;SDS011;2334;48.710;9.622;2023-12-07T13:39:58;1.70;;;1.60;;
4642;SDS011;2334;48.710;9.622;2023-12-07T13:42:29;1.60;;;1.03;;
4642;SDS011;2334;48.710;9.622;2023-12-07T13:44:57;2.63;;;1.87;;
4642;SDS011;2334;48.710;9.622;2023-12-07T13:47:25;1.90;;;1.60;;
4642;SDS011;2334;48.710;9.622;2023-12-07T13:49:56;1.60;;;1.50;;
4642;SDS011;2334;48.710;9.622;2023-12-07T13:52:23;2.80;;;1.90;;
4642;SDS011;2334;48.710;9.622;2023-12-07T13:54:52;2.40;;;1.40;;
4642;SDS011;2334;48.710;9.622;2023-12-07T13:57:19;2.27;;;1.70;;
4642;SDS011;2334;48.710;9.622;2023-12-07T13:59:46;2.10;;;1.40;;
4642;SDS011;2334;48.710;9.622;2023-12-07T14:02:12;3.43;;;2.10;;
4642;SDS011;2334;48.710;9.622;2023-12-07T14:04:40;2.30;;;1.50;;
4642;SDS011;2334;48.710;9.622;2023-12-07T14:07:07;2.10;;;1.90;;
4642;SDS011;2334;48.710;9.622;2023-12-07T14:09:36;2.50;;;1.93;;
4642;SDS011;2334;48.710;9.622;2023-12-07T14:12:05;10.13;;;2.20;;
4642;SDS011;2334;48.710;9.622;2023-12-07T14:14:33;1.80;;;1.70;;
4642;SDS011;2334;48.710;9.622;2023-12-07T14:17:00;2.50;;;2.10;;
4642;SDS011;2334;48.710;9.622;2023-12-07T14:19:28;6.20;;;2.13;;
4642;SDS011;2334;48.710;9.622;2023-12-07T14:21:55;3.93;;;2.07;;
4642;SDS011;2334;48.710;9.622;2023-12-07T14:24:22;2.73;;;1.60;;
4642;SDS011;2334;48.710;9.622;2023-12-07T14:26:49;1.93;;;1.70;;
4642;SDS011;2334;48.710;9.622;2023-12-07T14:29:18;2.50;;;2.30;;
4642;SDS011;2334;48.710;9.622;2023-12-07T14:31:46;10.53;;;2.43;;
4642;SDS011;2334;48.710;9.622;2023-12-07T14:34:14;3.50;;;2.87;;
4642;SDS011;2334;48.710;9.622;2023-12-07T14:36:41;4.60;;;2.40;;
4642;SDS011;2334;48.710;9.622;2023-12-07T14:39:09;2.27;;;2.07;;
4642;SDS011;2334;48.710;9.622;2023-12-07T14:41:41;4.50;;;2.50;;
4642;SDS011;2334;48.710;9.622;2023-12-07T14:44:09;4.63;;;2.93;;
4642;SDS011;2334;48.710;9.622;2023-12-07T14:46:38;8.83;;;3.00;;
4642;SDS011;2334;48.710;9.622;2023-12-07T14:49:04;4.10;;;2.97;;
4642;SDS011;2334;48.710;9.622;2023-12-07T14:51:31;4.20;;;2.87;;
4642;SDS011;2334;48.710;9.622;2023-12-07T14:53:58;5.07;;;2.80;;
4642;SDS011;2334;48.710;9.622;2023-12-07T14:56:25;5.67;;;2.97;;
4642;SDS011;2334;48.710;9.622;2023-12-07T14:58:52;4.50;;;3.20;;
4642;SDS011;2334;48.710;9.622;2023-12-07T15:01:19;3.70;;;2.10;;
4642;SDS011;2334;48.710;9.622;2023-12-07T15:03:47;5.70;;;2.73;;
4642;SDS011;2334;48.710;9.622;2023-12-07T15:06:14;4.30;;;3.10;;
4642;SDS011;2334;48.710;9.622;2023-12-07T15:08:41;4.57;;;3.30;;
4642;SDS011;2334;48.710;9.622;2023-12-07T15:11:07;4.70;;;2.77;;
4642;SDS011;2334;48.710;9.622;2023-12-07T15:13:35;3.40;;;2.80;;